createdAt,value
2023-03-04T00:00:07.766Z,0
2023-03-04T00:03:08.072Z,0
2023-03-04T00:06:07.788Z,0
2023-03-04T00:09:07.766Z,0
2023-03-04T00:12:07.761Z,0
2023-03-04T00:15:07.749Z,0
2023-03-04T00:18:07.713Z,0
2023-03-04T00:21:07.693Z,0
2023-03-04T00:24:07.767Z,0
2023-03-04T00:27:07.747Z,0
2023-03-04T00:30:08.646Z,0
2023-03-04T00:33:07.756Z,0
2023-03-04T00:36:07.758Z,0
2023-03-04T00:39:07.690Z,0
2023-03-04T00:42:07.694Z,0
2023-03-04T00:45:07.772Z,0
2023-03-04T00:48:07.722Z,0
2023-03-04T00:51:07.764Z,0
2023-03-04T00:54:07.994Z,0
2023-03-04T00:57:07.775Z,0
2023-03-04T01:00:07.856Z,0
2023-03-04T01:03:07.767Z,0
2023-03-04T01:06:07.716Z,0
2023-03-04T01:09:07.770Z,0
2023-03-04T01:12:07.828Z,0
2023-03-04T01:15:07.839Z,0
2023-03-04T01:18:08.054Z,0
2023-03-04T01:21:07.853Z,0
2023-03-04T01:24:07.708Z,0
2023-03-04T01:27:07.686Z,0
2023-03-04T01:30:07.741Z,0
2023-03-04T01:33:07.743Z,0
2023-03-04T01:36:07.738Z,0
2023-03-04T01:39:07.690Z,0
2023-03-04T01:42:07.775Z,0
2023-03-04T01:45:07.764Z,0
2023-03-04T01:48:07.735Z,0
2023-03-04T01:51:07.694Z,0
2023-03-04T01:54:07.741Z,0
2023-03-04T01:57:07.722Z,0
2023-03-04T02:00:07.777Z,0
2023-03-04T02:03:07.832Z,0
2023-03-04T02:06:07.722Z,0
2023-03-04T02:09:07.909Z,0
2023-03-04T02:12:07.763Z,0
2023-03-04T02:15:07.769Z,0
2023-03-04T02:18:07.803Z,0
2023-03-04T02:21:07.720Z,0
2023-03-04T02:24:07.724Z,0
2023-03-04T02:27:07.701Z,0
2023-03-04T02:30:07.807Z,0
2023-03-04T02:33:07.751Z,0
2023-03-04T02:36:07.690Z,0
2023-03-04T02:39:08.396Z,0
2023-03-04T02:42:07.836Z,0
2023-03-04T02:45:07.791Z,0
2023-03-04T02:48:07.733Z,0
2023-03-04T02:51:07.768Z,0
2023-03-04T02:54:07.797Z,0
2023-03-04T02:57:07.764Z,0
2023-03-04T03:00:07.671Z,0
2023-03-04T03:03:08.152Z,0
2023-03-04T03:06:07.812Z,0
2023-03-04T03:09:07.704Z,0
2023-03-04T03:12:07.801Z,0
2023-03-04T03:15:08.058Z,0
2023-03-04T03:18:08.304Z,0
2023-03-04T03:21:07.737Z,0
2023-03-04T03:24:07.793Z,0
2023-03-04T03:27:07.816Z,0
2023-03-04T03:30:07.724Z,0
2023-03-04T03:33:07.738Z,0
2023-03-04T03:36:08.364Z,0
2023-03-04T03:39:07.751Z,0
2023-03-04T03:42:07.711Z,0
2023-03-04T03:45:07.843Z,0
2023-03-04T03:48:07.747Z,0
2023-03-04T03:51:07.790Z,0
2023-03-04T03:54:07.791Z,0
2023-03-04T03:57:07.774Z,0
2023-03-04T04:00:08.103Z,0
2023-03-04T04:03:08.297Z,0
2023-03-04T04:06:07.806Z,0
2023-03-04T04:09:07.775Z,0
2023-03-04T04:12:07.725Z,0
2023-03-04T04:15:08.397Z,0
2023-03-04T04:18:07.838Z,0
2023-03-04T04:21:07.763Z,0
2023-03-04T04:24:07.825Z,0
2023-03-04T04:27:07.781Z,0
2023-03-04T04:30:07.866Z,0
2023-03-04T04:33:07.762Z,0
2023-03-04T04:36:07.930Z,0
2023-03-04T04:39:07.825Z,0
2023-03-04T04:42:07.752Z,0
2023-03-04T04:45:07.863Z,0
2023-03-04T04:48:07.852Z,0
2023-03-04T04:51:07.788Z,0
2023-03-04T04:54:07.945Z,0
2023-03-04T04:57:07.736Z,0
2023-03-04T05:00:07.768Z,0
2023-03-04T05:03:08.028Z,0
2023-03-04T05:06:07.800Z,0
2023-03-04T05:09:07.720Z,0
2023-03-04T05:12:07.766Z,0
2023-03-04T05:15:07.717Z,0
2023-03-04T05:18:07.745Z,0
2023-03-04T05:21:07.757Z,0
2023-03-04T05:24:07.751Z,0
2023-03-04T05:27:07.719Z,0
2023-03-04T05:30:07.781Z,3
2023-03-04T05:33:07.719Z,3
2023-03-04T05:36:07.976Z,10
2023-03-04T05:39:07.744Z,17
2023-03-04T05:42:07.809Z,17
2023-03-04T05:45:07.805Z,43
2023-03-04T05:48:07.786Z,63
2023-03-04T05:51:07.752Z,90
2023-03-04T05:54:07.822Z,133
2023-03-04T05:57:07.747Z,193
2023-03-04T06:00:07.847Z,243
2023-03-04T06:03:07.983Z,267
2023-03-04T06:06:07.843Z,287
2023-03-04T06:09:08.019Z,303
2023-03-04T06:12:07.821Z,403
2023-03-04T06:15:07.747Z,593
2023-03-04T06:18:07.880Z,600
2023-03-04T06:21:07.873Z,780
2023-03-04T06:24:07.771Z,637
2023-03-04T06:27:07.920Z,850
2023-03-04T06:30:08.417Z,1047
2023-03-04T06:33:07.791Z,1073
2023-03-04T06:36:07.911Z,1270
2023-03-04T06:39:07.783Z,1597
2023-03-04T06:42:07.831Z,1720
2023-03-04T06:45:07.856Z,1503
2023-03-04T06:48:07.796Z,2297
2023-03-04T06:51:07.803Z,2227
2023-03-04T06:54:07.806Z,2607
2023-03-04T06:57:07.762Z,3123
2023-03-04T07:00:07.862Z,2673
2023-03-04T07:03:07.841Z,3123
2023-03-04T07:06:07.873Z,4143
2023-03-04T07:09:07.967Z,3197
2023-03-04T07:12:07.798Z,4007
2023-03-04T07:15:08.043Z,5343
2023-03-04T07:18:07.795Z,4873
2023-03-04T07:21:07.814Z,4843
2023-03-04T07:24:07.806Z,4780
2023-03-04T07:27:07.867Z,7273
2023-03-04T07:30:08.019Z,3900
2023-03-04T07:33:07.870Z,5373
2023-03-04T07:36:07.899Z,6373
2023-03-04T07:39:07.877Z,6097
2023-03-04T07:42:07.736Z,5860
2023-03-04T07:45:07.825Z,5050
2023-03-04T07:48:07.838Z,5507
2023-03-04T07:51:07.999Z,6730
2023-03-04T07:54:07.861Z,7300
2023-03-04T07:57:07.904Z,6327
2023-03-04T08:00:08.265Z,8440
2023-03-04T08:03:07.817Z,6757
2023-03-04T08:06:07.865Z,6813
2023-03-04T08:09:07.838Z,11727
2023-03-04T08:12:07.901Z,12243
2023-03-04T08:15:07.887Z,8693
2023-03-04T08:18:07.782Z,10620
2023-03-04T08:21:07.911Z,7203
2023-03-04T08:24:08.572Z,7783
2023-03-04T08:27:07.893Z,7857
2023-03-04T08:30:07.883Z,9240
2023-03-04T08:33:08.092Z,6963
2023-03-04T08:36:07.755Z,7930
2023-03-04T08:39:07.811Z,6403
2023-03-04T08:42:07.790Z,6337
2023-03-04T08:45:07.852Z,5767
2023-03-04T08:48:07.818Z,8213
2023-03-04T08:51:07.901Z,15243
2023-03-04T08:54:07.830Z,27820
2023-03-04T08:57:07.846Z,15523
2023-03-04T09:00:07.929Z,13693
2023-03-04T09:03:07.814Z,10263
2023-03-04T09:06:07.934Z,6687
2023-03-04T09:09:07.780Z,6473
2023-03-04T09:12:07.809Z,5933
2023-03-04T09:15:20.624Z,5697
2023-03-04T09:18:08.525Z,4577
2023-03-04T09:21:07.829Z,3627
2023-03-04T09:24:07.789Z,4670
2023-03-04T09:27:07.885Z,7520
2023-03-04T09:30:07.818Z,8247
2023-03-04T09:33:07.784Z,7240
2023-03-04T09:36:08.285Z,7360
2023-03-04T09:39:07.779Z,9057
2023-03-04T09:42:07.785Z,8083
2023-03-04T09:45:07.833Z,8680
2023-03-04T09:48:07.854Z,9997
2023-03-04T09:51:07.859Z,11463
2023-03-04T09:54:07.901Z,9523
2023-03-04T09:57:07.855Z,13833
2023-03-04T10:00:08.079Z,11420
2023-03-04T10:03:07.846Z,14497
2023-03-04T10:06:07.828Z,11943
2023-03-04T10:09:07.828Z,10660
2023-03-04T10:12:07.878Z,8817
2023-03-04T10:15:07.852Z,7640
2023-03-04T10:18:07.744Z,12690
2023-03-04T10:21:07.793Z,8380
2023-03-04T10:24:07.806Z,15613
2023-03-04T10:27:07.796Z,23793
2023-03-04T10:30:07.802Z,19330
2023-03-04T10:33:07.814Z,22927
2023-03-04T10:36:08.016Z,18827
2023-03-04T10:39:07.771Z,16557
2023-03-04T10:42:08.608Z,14793
2023-03-04T10:45:07.847Z,11873
2023-03-04T10:48:07.901Z,9987
2023-03-04T10:51:07.846Z,11933
2023-03-04T10:54:07.786Z,12323
2023-03-04T10:57:07.762Z,10210
2023-03-04T11:00:07.982Z,9840
2023-03-04T11:03:07.715Z,9437
2023-03-04T11:06:07.930Z,9563
2023-03-04T11:09:07.912Z,10853
2023-03-04T11:12:07.835Z,15130
2023-03-04T11:15:07.808Z,21697
2023-03-04T11:18:07.829Z,22217
2023-03-04T11:21:07.865Z,29810
2023-03-04T11:24:15.912Z,32373
2023-03-04T11:27:07.887Z,19490
2023-03-04T11:30:07.777Z,22880
2023-03-04T11:33:07.780Z,18653
2023-03-04T11:36:07.795Z,14277
2023-03-04T11:39:08.063Z,12377
2023-03-04T11:42:07.780Z,10813
2023-03-04T11:45:21.452Z,9030
2023-03-04T11:48:07.862Z,10127
2023-03-04T11:51:07.840Z,12560
2023-03-04T11:54:07.844Z,9240
2023-03-04T11:57:07.768Z,13343
2023-03-04T12:00:08.083Z,13903
2023-03-04T12:03:07.915Z,28050
2023-03-04T12:06:07.834Z,26377
2023-03-04T12:09:08.004Z,20217
2023-03-04T12:12:07.827Z,19677
2023-03-04T12:15:07.892Z,18627
2023-03-04T12:18:08.206Z,23860
2023-03-04T12:21:07.797Z,23540
2023-03-04T12:24:07.784Z,23790
2023-03-04T12:27:07.808Z,22343
2023-03-04T12:30:07.967Z,41740
2023-03-04T12:33:08.397Z,18230
2023-03-04T12:36:07.995Z,44607
2023-03-04T12:39:07.886Z,54573
2023-03-04T12:42:07.894Z,35873
2023-03-04T12:45:07.863Z,16153
2023-03-04T12:48:07.831Z,16680
2023-03-04T12:51:07.898Z,15730
2023-03-04T12:54:07.846Z,18947
2023-03-04T12:57:07.856Z,15603
2023-03-04T13:00:07.971Z,12713
2023-03-04T13:03:08.533Z,14897
2023-03-04T13:06:07.830Z,12453
2023-03-04T13:09:07.858Z,15953
2023-03-04T13:12:07.816Z,20607
2023-03-04T13:15:07.809Z,32450
2023-03-04T13:18:07.888Z,50767
2023-03-04T13:21:07.796Z,22453
2023-03-04T13:24:07.818Z,8803
2023-03-04T13:27:07.751Z,7957
2023-03-04T13:30:08.000Z,14593
2023-03-04T13:33:07.824Z,16710
2023-03-04T13:36:08.004Z,19173
2023-03-04T13:39:07.769Z,13623
2023-03-04T13:42:07.939Z,13777
2023-03-04T13:45:07.879Z,16123
2023-03-04T13:48:07.839Z,16220
2023-03-04T13:51:08.744Z,14197
2023-03-04T13:54:07.841Z,14067
2023-03-04T13:57:07.804Z,16540
2023-03-04T14:00:08.662Z,15703
2023-03-04T14:03:07.913Z,14173
2023-03-04T14:06:08.157Z,12807
2023-03-04T14:09:09.911Z,9380
2023-03-04T14:12:07.917Z,10523
2023-03-04T14:15:08.127Z,12000
2023-03-04T14:18:07.934Z,9753
2023-03-04T14:21:07.737Z,12907
2023-03-04T14:24:07.887Z,13213
2023-03-04T14:27:07.807Z,13953
2023-03-04T14:30:07.921Z,13260
2023-03-04T14:33:07.749Z,12480
2023-03-04T14:36:08.040Z,13863
2023-03-04T14:39:07.818Z,13413
2023-03-04T14:42:07.836Z,10353
2023-03-04T14:45:07.883Z,9077
2023-03-04T14:48:07.793Z,5713
2023-03-04T14:51:07.878Z,4630
2023-03-04T14:54:07.798Z,5243
2023-03-04T14:57:07.811Z,6287
2023-03-04T15:00:07.802Z,7313
2023-03-04T15:03:07.789Z,7410
2023-03-04T15:06:07.830Z,7467
2023-03-04T15:09:07.915Z,7480
2023-03-04T15:12:07.799Z,7520
2023-03-04T15:15:07.840Z,6393
2023-03-04T15:18:07.882Z,6827
2023-03-04T15:21:07.805Z,6443
2023-03-04T15:24:07.823Z,6237
2023-03-04T15:27:07.800Z,4727
2023-03-04T15:30:08.086Z,3377
2023-03-04T15:33:07.875Z,2667
2023-03-04T15:36:07.871Z,3073
2023-03-04T15:39:07.794Z,5380
2023-03-04T15:42:07.990Z,3727
2023-03-04T15:45:07.793Z,3487
2023-03-04T15:48:08.031Z,3313
2023-03-04T15:51:07.804Z,3397
2023-03-04T15:54:07.767Z,3000
2023-03-04T15:57:07.793Z,3153
2023-03-04T16:00:07.834Z,4620
2023-03-04T16:03:07.828Z,3823
2023-03-04T16:06:07.797Z,2597
2023-03-04T16:09:12.725Z,2343
2023-03-04T16:12:07.835Z,2153
2023-03-04T16:15:10.251Z,1787
2023-03-04T16:18:07.949Z,1540
2023-03-04T16:21:09.803Z,970
2023-03-04T16:24:07.855Z,1203
2023-03-04T16:27:10.594Z,1327
2023-03-04T16:30:07.863Z,1247
2023-03-04T16:33:07.856Z,1017
2023-03-04T16:36:08.472Z,893
2023-03-04T16:39:07.741Z,660
2023-03-04T16:42:07.904Z,630
2023-03-04T16:45:08.512Z,567
2023-03-04T16:48:07.776Z,490
2023-03-04T16:51:07.866Z,440
2023-03-04T16:54:07.781Z,377
2023-03-04T16:57:07.819Z,303
2023-03-04T17:00:07.893Z,250
2023-03-04T17:03:08.280Z,177
2023-03-04T17:06:07.745Z,127
2023-03-04T17:09:07.784Z,80
2023-03-04T17:12:07.699Z,63
2023-03-04T17:15:07.725Z,43
2023-03-04T17:18:07.707Z,23
2023-03-04T17:21:07.758Z,13
2023-03-04T17:24:09.170Z,7
2023-03-04T17:27:07.732Z,3
2023-03-04T17:30:09.341Z,3
2023-03-04T17:33:07.816Z,0
2023-03-04T17:36:09.966Z,0
2023-03-04T17:39:07.908Z,0
2023-03-04T17:42:07.803Z,0
2023-03-04T17:45:07.792Z,0
2023-03-04T17:48:07.749Z,0
2023-03-04T17:51:07.782Z,0
2023-03-04T17:54:07.737Z,0
2023-03-04T17:57:07.783Z,0
2023-03-04T18:00:07.945Z,0
2023-03-04T18:03:07.696Z,0
2023-03-04T18:06:07.789Z,0
2023-03-04T18:09:07.794Z,0
2023-03-04T18:12:07.753Z,0
2023-03-04T18:15:07.861Z,0
2023-03-04T18:18:07.757Z,0
2023-03-04T18:21:07.730Z,0
2023-03-04T18:24:07.717Z,0
2023-03-04T18:27:07.794Z,0
2023-03-04T18:30:07.718Z,0
2023-03-04T18:33:08.270Z,0
2023-03-04T18:36:07.888Z,0
2023-03-04T18:39:07.863Z,0
2023-03-04T18:42:07.927Z,0
2023-03-04T18:45:07.814Z,0
2023-03-04T18:48:07.809Z,0
2023-03-04T18:51:07.719Z,0
2023-03-04T18:54:07.836Z,0
2023-03-04T18:57:07.843Z,0
2023-03-04T19:00:07.780Z,0
2023-03-04T19:03:07.803Z,0
2023-03-04T19:06:07.774Z,0
2023-03-04T19:09:07.847Z,0
2023-03-04T19:12:07.745Z,0
2023-03-04T19:15:07.821Z,0
2023-03-04T19:18:07.788Z,0
2023-03-04T19:21:11.815Z,0
2023-03-04T19:24:07.771Z,0
2023-03-04T19:27:07.790Z,0
2023-03-04T19:30:07.790Z,0
2023-03-04T19:33:07.770Z,0
2023-03-04T19:36:07.929Z,0
2023-03-04T19:39:07.843Z,0
2023-03-04T19:42:07.830Z,0
2023-03-04T19:45:07.817Z,0
2023-03-04T19:48:07.715Z,0
2023-03-04T19:51:07.833Z,0
2023-03-04T19:54:07.942Z,0
2023-03-04T19:57:07.740Z,0
2023-03-04T20:00:07.981Z,0
2023-03-04T20:03:07.710Z,0
2023-03-04T20:06:07.729Z,0
2023-03-04T20:09:08.195Z,0
2023-03-04T20:12:07.733Z,0
2023-03-04T20:15:07.695Z,0
2023-03-04T20:18:07.839Z,0
2023-03-04T20:21:07.801Z,0
2023-03-04T20:24:07.754Z,0
2023-03-04T20:27:08.497Z,0
2023-03-04T20:30:10.910Z,0
2023-03-04T20:33:07.711Z,0
2023-03-04T20:36:07.811Z,0
2023-03-04T20:39:32.641Z,0
2023-03-04T20:42:07.686Z,0
2023-03-04T20:45:07.772Z,0
2023-03-04T20:48:07.787Z,0
2023-03-04T20:51:07.801Z,0
2023-03-04T20:54:07.719Z,0
2023-03-04T20:57:07.780Z,0
2023-03-04T21:00:07.771Z,0
2023-03-04T21:03:07.714Z,0
2023-03-04T21:06:07.823Z,0
2023-03-04T21:09:07.701Z,0
2023-03-04T21:12:08.073Z,0
2023-03-04T21:15:07.711Z,0
2023-03-04T21:18:07.755Z,0
2023-03-04T21:21:07.673Z,0
2023-03-04T21:24:07.824Z,0
2023-03-04T21:27:07.735Z,0
2023-03-04T21:30:07.774Z,0
2023-03-04T21:33:10.594Z,0
2023-03-04T21:36:07.980Z,0
2023-03-04T21:39:07.747Z,0
2023-03-04T21:42:07.844Z,0
2023-03-04T21:45:07.999Z,0
2023-03-04T21:48:07.765Z,0
2023-03-04T21:51:07.795Z,0
2023-03-04T21:54:07.737Z,0
2023-03-04T21:57:07.776Z,0
2023-03-04T22:00:09.891Z,0
2023-03-04T22:03:07.778Z,0
2023-03-04T22:06:07.809Z,0
2023-03-04T22:09:07.832Z,0
2023-03-04T22:12:07.872Z,0
2023-03-04T22:15:07.810Z,0
2023-03-04T22:18:07.742Z,0
2023-03-04T22:21:07.815Z,0
2023-03-04T22:24:07.767Z,0
2023-03-04T22:27:07.895Z,0
2023-03-04T22:30:07.917Z,0
2023-03-04T22:33:07.828Z,0
2023-03-04T22:36:07.947Z,0
2023-03-04T22:39:08.096Z,0
2023-03-04T22:42:07.710Z,0
2023-03-04T22:45:07.812Z,0
2023-03-04T22:48:07.791Z,0
2023-03-04T22:51:07.816Z,0
2023-03-04T22:54:07.770Z,0
2023-03-04T22:57:07.832Z,0
2023-03-04T23:00:08.374Z,0
2023-03-04T23:03:07.856Z,0
2023-03-04T23:06:07.775Z,0
2023-03-04T23:09:07.748Z,0
2023-03-04T23:12:07.834Z,0
2023-03-04T23:15:08.170Z,0
2023-03-04T23:18:07.909Z,0
2023-03-04T23:21:07.749Z,0
2023-03-04T23:24:07.773Z,0
2023-03-04T23:27:07.783Z,0
2023-03-04T23:30:07.774Z,0
2023-03-04T23:33:07.806Z,0
2023-03-04T23:36:07.867Z,0
2023-03-04T23:39:07.842Z,0
2023-03-04T23:42:07.785Z,0
2023-03-04T23:45:07.856Z,0
2023-03-04T23:48:07.775Z,0
2023-03-04T23:51:07.871Z,0
2023-03-04T23:54:07.782Z,0
2023-03-04T23:57:07.757Z,0
